Time;durP1;ratioP1;P1;durP2;ratioP2;P2;SDS_P1;SDS_P2;PMS_P1;PMS_P2;Temp;Humidity;BMP_temperature;BMP_pressure;BME280_temperature;BME280_humidity;BME280_pressure;Samples;Min_cycle;Max_cycle;Signal;HPM_P1;HPM_P2
2023/06/25 00:00:54;;;;;;;;;;;;;;;21.96;61.46;99712.03;4444149;32;35243;-77
2023/06/25 00:03:24;;;;;;;;;;;;;;;21.85;61.69;99714.47;4445101;32;33013;-78
2023/06/25 00:05:53;;;;;;;;;;;;;;;22.02;61.16;99711.66;4438282;32;34168;-79
2023/06/25 00:08:22;;;;;;;;;;;;;;;22.03;61.13;99712.50;4438808;32;34487;-77
2023/06/25 00:10:50;;;;;;;;;;;;;;;22.08;60.97;99713.94;4443552;32;33782;-77
2023/06/25 00:13:19;;;;;;;;;;;;;;;22.08;61.01;99713.09;4444212;32;33863;-78
2023/06/25 00:15:49;;;;;;;;;;;;;;;21.85;61.80;99706.56;4449465;32;34680;-77
2023/06/25 00:18:18;;;;;;;;;;;;;;;21.98;61.32;99718.06;4444080;32;33878;-77
2023/06/25 00:20:47;;;;;;;;;;;;;;;21.88;61.79;99723.06;4443834;32;33687;-79
2023/06/25 00:23:17;;;;;;;;;;;;;;;21.92;61.67;99719.28;4436734;32;32986;-79
2023/06/25 00:25:47;;;;;;;;;;;;;;;21.97;61.82;99728.75;4441435;32;35698;-77
2023/06/25 00:28:16;;;;;;;;;;;;;;;21.97;61.67;99737.50;4462175;32;34118;-77
2023/06/25 00:30:45;;;;;;;;;;;;;;;21.99;61.80;99735.63;4470716;32;33509;-79
2023/06/25 00:33:15;;;;;;;;;;;;;;;21.94;61.82;99743.00;4476205;32;33435;-77
2023/06/25 00:36:06;;;;;;;;;;;;;;;21.60;63.08;99744.97;4475078;32;34711;-78
2023/06/25 00:38:38;;;;;;;;;;;;;;;21.63;63.11;99743.94;4471740;32;33687;-77
2023/06/25 00:41:07;;;;;;;;;;;;;;;21.29;64.91;99744.03;4472290;32;34721;-77
2023/06/25 00:43:41;;;;;;;;;;;;;;;21.37;64.99;99743.59;4474221;32;32670;-78
2023/06/25 00:46:12;;;;;;;;;;;;;;;21.50;64.89;99743.78;4476304;32;33536;-77
2023/06/25 00:48:45;;;;;;;;;;;;;;;21.56;64.91;99746.06;4476222;32;34283;-77
2023/06/25 00:51:15;;;;;;;;;;;;;;;21.79;63.70;99749.16;4475187;32;33900;-79
2023/06/25 00:53:44;;;;;;;;;;;;;;;21.90;63.51;99746.75;4466309;32;33222;-77
2023/06/25 00:56:12;;;;;;;;;;;;;;;21.84;63.76;99747.97;4478677;32;34730;-79
2023/06/25 00:58:43;;;;;;;;;;;;;;;21.98;63.15;99748.91;4477789;32;34795;-79
2023/06/25 01:01:15;;;;;;;;;;;;;;;22.06;63.04;99758.09;4465800;32;33431;-79
2023/06/25 01:03:54;;;;;;;;;;;;;;;22.14;62.60;99758.47;4478450;32;33424;-79
2023/06/25 01:06:29;;;;;;;;;;;;;;;22.06;63.14;99752.81;4472720;32;33952;-77
2023/06/25 01:08:59;;;;;;;;;;;;;;;22.06;63.37;99746.66;4470952;32;34384;-79
2023/06/25 01:11:29;;;;;;;;;;;;;;;22.16;63.29;99742.56;4476673;32;34319;-78
2023/06/25 01:13:57;;;;;;;;;;;;;;;22.12;63.49;99741.87;4470211;32;34271;-78
2023/06/25 01:16:26;;;;;;;;;;;;;;;22.21;63.05;99734.37;4470837;32;34722;-78
2023/06/25 01:18:58;;;;;;;;;;;;;;;22.11;63.49;99732.25;4472064;32;34928;-77
2023/06/25 01:21:33;;;;;;;;;;;;;;;22.45;62.18;99727.59;4465313;32;34765;-79
2023/06/25 01:24:03;;;;;;;;;;;;;;;22.26;62.97;99725.22;4470969;32;34013;-77
2023/06/25 01:26:31;;;;;;;;;;;;;;;22.28;62.96;99722.50;4471393;32;34721;-77
2023/06/25 01:29:00;;;;;;;;;;;;;;;22.36;62.64;99717.56;4473421;31;35110;-78
2023/06/25 01:31:30;;;;;;;;;;;;;;;22.36;62.68;99712.28;4471344;32;32577;-78
2023/06/25 01:34:00;;;;;;;;;;;;;;;22.33;62.92;99717.78;4466615;32;32708;-79
2023/06/25 01:36:30;;;;;;;;;;;;;;;22.52;62.02;99706.88;4468514;32;34191;-77
2023/06/25 01:38:58;;;;;;;;;;;;;;;22.35;62.54;99710.59;4478261;32;34791;-78
2023/06/25 01:41:28;;;;;;;;;;;;;;;22.37;62.49;99713.97;4469033;32;34213;-77
2023/06/25 01:43:57;;;;;;;;;;;;;;;22.15;63.29;99711.75;4466719;32;33068;-77
2023/06/25 01:46:26;;;;;;;;;;;;;;;22.26;62.99;99711.16;4468185;32;34966;-79
2023/06/25 01:48:54;;;;;;;;;;;;;;;22.17;63.39;99718.66;4474137;32;34010;-77
2023/06/25 01:51:23;;;;;;;;;;;;;;;22.37;62.53;99714.84;4476811;32;34872;-78
2023/06/25 01:53:52;;;;;;;;;;;;;;;22.17;63.45;99708.09;4470063;32;33997;-79
2023/06/25 01:56:21;;;;;;;;;;;;;;;22.15;63.60;99715.25;4475204;32;33828;-79
2023/06/25 01:58:53;;;;;;;;;;;;;;;22.21;63.22;99707.97;4472053;32;34812;-77
2023/06/25 02:01:22;;;;;;;;;;;;;;;21.92;64.46;99710.53;4473611;32;34202;-77
2023/06/25 02:03:50;;;;;;;;;;;;;;;21.94;64.28;99712.13;4462321;32;33768;-77
2023/06/25 02:06:19;;;;;;;;;;;;;;;22.11;63.75;99715.56;4468227;32;33797;-77
2023/06/25 02:08:48;;;;;;;;;;;;;;;21.76;65.32;99713.22;4463712;32;33917;-79
2023/06/25 02:11:17;;;;;;;;;;;;;;;22.00;64.66;99710.91;4475821;32;35185;-77
2023/06/25 02:13:46;;;;;;;;;;;;;;;22.05;64.27;99716.75;4474846;32;34106;-77
2023/06/25 02:16:18;;;;;;;;;;;;;;;22.01;64.67;99717.03;4466170;32;34108;-78
2023/06/25 02:18:49;;;;;;;;;;;;;;;21.98;64.90;99714.59;4462355;32;35055;-77
2023/06/25 02:21:18;;;;;;;;;;;;;;;21.98;64.90;99717.22;4475381;32;33045;-77
2023/06/25 02:23:47;;;;;;;;;;;;;;;22.11;64.69;99724.31;4464358;32;33576;-79
2023/06/25 02:26:15;;;;;;;;;;;;;;;22.06;65.08;99718.47;4471017;32;34127;-79
2023/06/25 02:28:44;;;;;;;;;;;;;;;22.20;64.96;99727.34;4471225;32;34304;-77
2023/06/25 02:31:12;;;;;;;;;;;;;;;22.31;64.40;99722.28;4471753;32;34881;-79
2023/06/25 02:33:42;;;;;;;;;;;;;;;22.41;63.88;99720.78;4483558;32;33062;-78
2023/06/25 02:36:11;;;;;;;;;;;;;;;22.44;63.53;99722.38;4474555;32;34971;-79
2023/06/25 02:38:40;;;;;;;;;;;;;;;22.52;62.89;99728.91;4474749;32;33910;-78
2023/06/25 02:41:08;;;;;;;;;;;;;;;22.33;63.88;99731.00;4469274;32;34616;-77
2023/06/25 02:43:38;;;;;;;;;;;;;;;22.20;64.55;99724.69;4483130;32;32950;-79
2023/06/25 02:46:06;;;;;;;;;;;;;;;22.33;64.08;99729.19;4473490;32;34722;-77
2023/06/25 02:48:36;;;;;;;;;;;;;;;22.25;64.14;99727.94;4469446;32;33781;-78
2023/06/25 02:51:06;;;;;;;;;;;;;;;22.25;64.57;99725.31;4461348;32;34165;-78
2023/06/25 02:53:34;;;;;;;;;;;;;;;22.41;63.89;99728.72;4470650;32;32677;-77
2023/06/25 02:56:03;;;;;;;;;;;;;;;22.28;64.53;99728.63;4473079;32;33780;-78
2023/06/25 02:58:32;;;;;;;;;;;;;;;22.40;64.21;99729.66;4465349;32;34756;-79
2023/06/25 03:01:01;;;;;;;;;;;;;;;22.58;63.13;99732.94;4474018;32;34474;-78
2023/06/25 03:03:29;;;;;;;;;;;;;;;22.40;63.97;99726.16;4477134;32;34280;-77
2023/06/25 03:05:58;;;;;;;;;;;;;;;22.50;63.93;99730.78;4470359;32;34514;-79
2023/06/25 03:08:28;;;;;;;;;;;;;;;22.50;64.22;99728.16;4469489;32;34315;-77
2023/06/25 03:10:57;;;;;;;;;;;;;;;22.32;65.12;99729.28;4471118;32;33527;-79
2023/06/25 03:13:26;;;;;;;;;;;;;;;22.65;64.13;99728.13;4472708;32;34032;-78
2023/06/25 03:15:55;;;;;;;;;;;;;;;22.79;64.41;99726.31;4477119;32;34224;-78
2023/06/25 03:18:24;;;;;;;;;;;;;;;22.77;64.69;99728.22;4465624;32;34775;-80
2023/06/25 03:20:52;;;;;;;;;;;;;;;22.70;65.03;99726.91;4477539;32;34884;-79
2023/06/25 03:23:21;;;;;;;;;;;;;;;22.68;65.06;99733.22;4474912;32;33581;-77
2023/06/25 03:25:52;;;;;;;;;;;;;;;22.72;65.07;99732.09;4470294;32;34233;-78
2023/06/25 03:28:22;;;;;;;;;;;;;;;22.68;65.60;99734.06;4471385;32;34910;-79
2023/06/25 03:30:50;;;;;;;;;;;;;;;22.70;66.33;99732.19;4461329;32;34329;-78
2023/06/25 03:33:19;;;;;;;;;;;;;;;22.62;66.90;99738.91;4473849;32;34256;-78
2023/06/25 03:35:48;;;;;;;;;;;;;;;22.92;66.02;99736.97;4463585;32;34951;-78
2023/06/25 03:38:17;;;;;;;;;;;;;;;22.55;68.41;99733.16;4471654;32;34834;-79
2023/06/25 03:40:46;;;;;;;;;;;;;;;22.72;67.85;99732.09;4462023;32;34561;-78
2023/06/25 03:43:19;;;;;;;;;;;;;;;22.63;68.25;99730.03;4471672;32;33712;-77
2023/06/25 03:45:48;;;;;;;;;;;;;;;21.96;73.07;99738.44;4467652;32;34160;-76
2023/06/25 03:48:22;;;;;;;;;;;;;;;21.18;79.82;99741.16;4472820;32;34235;-78
2023/06/25 03:50:51;;;;;;;;;;;;;;;21.09;80.83;99734.63;4473312;32;35068;-78
2023/06/25 03:53:19;;;;;;;;;;;;;;;21.29;80.61;99727.37;4462550;32;34018;-78
2023/06/25 03:55:48;;;;;;;;;;;;;;;21.70;77.59;99729.44;4464343;32;34379;-78
2023/06/25 03:58:18;;;;;;;;;;;;;;;21.64;78.44;99737.69;4467868;32;33964;-77
2023/06/25 04:00:48;;;;;;;;;;;;;;;21.47;79.72;99733.41;4474314;32;34799;-77
2023/06/25 04:03:17;;;;;;;;;;;;;;;21.65;78.53;99732.34;4459970;32;31823;-76
2023/06/25 04:05:46;;;;;;;;;;;;;;;21.73;77.91;99735.38;4463318;32;33929;-77
2023/06/25 04:08:16;;;;;;;;;;;;;;;21.68;78.41;99726.03;4462643;32;33584;-78
2023/06/25 04:10:46;;;;;;;;;;;;;;;21.73;77.88;99734.53;4466837;32;34615;-77
2023/06/25 04:13:15;;;;;;;;;;;;;;;21.76;77.66;99736.97;4466267;32;33231;-76
2023/06/25 04:15:45;;;;;;;;;;;;;;;21.64;78.15;99741.19;4472185;32;34137;-76
2023/06/25 04:18:15;;;;;;;;;;;;;;;21.64;78.37;99740.34;4472965;31;33918;-76
2023/06/25 04:20:44;;;;;;;;;;;;;;;21.72;78.04;99740.72;4470792;32;34178;-78
2023/06/25 04:23:13;;;;;;;;;;;;;;;21.61;78.41;99741.37;4477935;32;33621;-76
2023/06/25 04:25:43;;;;;;;;;;;;;;;21.67;78.35;99734.87;4473241;32;33601;-76
2023/06/25 04:28:15;;;;;;;;;;;;;;;21.64;78.78;99733.28;4471146;32;33750;-76
2023/06/25 04:30:44;;;;;;;;;;;;;;;21.64;78.39;99735.91;4468481;32;33864;-77
2023/06/25 04:33:14;;;;;;;;;;;;;;;21.65;79.07;99737.62;4477343;32;33419;-78
2023/06/25 04:35:49;;;;;;;;;;;;;;;21.81;78.64;99734.91;4480565;32;33819;-76
2023/06/25 04:38:18;;;;;;;;;;;;;;;21.78;79.25;99729.81;4476783;32;35068;-75
2023/06/25 04:40:47;;;;;;;;;;;;;;;21.83;79.31;99724.28;4475454;32;33867;-77
2023/06/25 04:43:16;;;;;;;;;;;;;;;21.94;78.84;99721.84;4469371;32;32842;-78
2023/06/25 04:45:45;;;;;;;;;;;;;;;21.94;78.62;99722.69;4478133;32;33671;-78
2023/06/25 04:48:17;;;;;;;;;;;;;;;21.88;78.98;99722.22;4472960;32;33883;-79
2023/06/25 04:50:45;;;;;;;;;;;;;;;21.80;79.55;99724.47;4468530;32;34105;-76
2023/06/25 04:53:14;;;;;;;;;;;;;;;21.92;79.69;99726.37;4470257;32;33666;-77
2023/06/25 04:55:43;;;;;;;;;;;;;;;22.07;78.85;99730.72;4476324;32;34041;-79
2023/06/25 04:58:12;;;;;;;;;;;;;;;22.17;78.86;99731.88;4476119;32;33781;-78
2023/06/25 05:00:40;;;;;;;;;;;;;;;22.41;80.25;99731.34;4474025;32;34276;-78
2023/06/25 05:03:09;;;;;;;;;;;;;;;22.53;78.56;99732.41;4468742;32;33167;-76
2023/06/25 05:05:40;;;;;;;;;;;;;;;22.45;78.09;99732.88;4465688;32;34680;-76
2023/06/25 05:08:08;;;;;;;;;;;;;;;22.42;78.30;99730.41;4472576;32;33765;-77
2023/06/25 05:10:37;;;;;;;;;;;;;;;22.48;78.15;99737.13;4471390;32;34211;-78
2023/06/25 05:13:06;;;;;;;;;;;;;;;22.56;77.98;99734.84;4470091;32;33509;-79
2023/06/25 05:15:35;;;;;;;;;;;;;;;22.52;78.12;99730.69;4469383;32;33862;-78
2023/06/25 05:18:04;;;;;;;;;;;;;;;22.47;78.61;99736.28;4479578;32;34675;-78
2023/06/25 05:20:36;;;;;;;;;;;;;;;22.56;78.21;99740.97;4475821;32;36353;-78
2023/06/25 05:23:06;;;;;;;;;;;;;;;22.67;77.91;99735.03;4470821;32;32995;-79
2023/06/25 05:25:35;;;;;;;;;;;;;;;22.76;77.60;99741.50;4467475;32;33880;-77
2023/06/25 05:28:05;;;;;;;;;;;;;;;22.83;77.32;99742.84;4466137;32;33822;-78
2023/06/25 05:30:34;;;;;;;;;;;;;;;22.87;76.94;99748.78;4465321;31;34809;-78
2023/06/25 05:33:03;;;;;;;;;;;;;;;22.90;77.00;99752.06;4459040;32;33898;-77
2023/06/25 05:35:33;;;;;;;;;;;;;;;22.87;76.97;99748.78;4459666;32;34091;-78
2023/06/25 05:38:02;;;;;;;;;;;;;;;22.94;76.81;99756.25;4462947;32;34097;-79
2023/06/25 05:40:32;;;;;;;;;;;;;;;23.05;76.47;99752.97;4478241;32;34450;-78
2023/06/25 05:43:01;;;;;;;;;;;;;;;22.96;76.72;99754.34;4477428;32;36012;-79
2023/06/25 05:45:29;;;;;;;;;;;;;;;23.12;76.53;99758.69;4468738;32;33892;-77
2023/06/25 05:47:58;;;;;;;;;;;;;;;23.29;75.45;99760.25;4471508;32;34377;-78
2023/06/25 05:50:27;;;;;;;;;;;;;;;23.37;74.95;99766.75;4474065;32;34324;-78
2023/06/25 05:52:56;;;;;;;;;;;;;;;23.43;74.69;99766.34;4467082;32;33364;-78
2023/06/25 05:55:24;;;;;;;;;;;;;;;23.47;74.56;99766.16;4465248;32;33674;-78
2023/06/25 05:57:54;;;;;;;;;;;;;;;23.64;73.07;99756.13;4476404;32;35078;-77
2023/06/25 06:00:23;;;;;;;;;;;;;;;23.54;73.37;99757.72;4465176;32;34974;-77
2023/06/25 06:02:51;;;;;;;;;;;;;;;23.66;70.54;99757.84;4466277;32;34187;-77
2023/06/25 06:05:24;;;;;;;;;;;;;;;23.61;70.11;99759.00;4462352;32;34765;-77
2023/06/25 06:07:53;;;;;;;;;;;;;;;23.62;68.48;99757.19;4463982;32;33965;-77
2023/06/25 06:10:21;;;;;;;;;;;;;;;23.53;67.53;99760.44;4469097;32;34520;-78
2023/06/25 06:12:50;;;;;;;;;;;;;;;23.30;67.05;99762.81;4467571;32;32954;-78
2023/06/25 06:15:21;;;;;;;;;;;;;;;23.46;65.51;99760.00;4469520;32;34557;-79
2023/06/25 06:17:49;;;;;;;;;;;;;;;23.17;67.61;99764.53;4476209;32;34564;-78
2023/06/25 06:20:18;;;;;;;;;;;;;;;23.03;70.39;99770.72;4472690;32;34924;-79
2023/06/25 06:22:48;;;;;;;;;;;;;;;23.00;71.54;99765.59;4469038;32;33685;-79
2023/06/25 06:25:17;;;;;;;;;;;;;;;23.14;71.32;99772.66;4466252;32;34225;-79
2023/06/25 06:27:45;;;;;;;;;;;;;;;23.15;72.23;99764.66;4472080;32;33699;-79
2023/06/25 06:30:14;;;;;;;;;;;;;;;;;;4473709;32;34009;-79
2023/06/25 06:32:44;;;;;;;;;;;;;;;23.44;71.86;99764.56;4470656;31;33687;-78
2023/06/25 06:35:12;;;;;;;;;;;;;;;23.60;71.09;99759.09;4478101;32;34220;-78
2023/06/25 06:37:41;;;;;;;;;;;;;;;23.33;71.70;99767.88;4472737;32;34023;-77
2023/06/25 06:40:09;;;;;;;;;;;;;;;23.32;68.75;99766.22;4472895;32;35139;-78
2023/06/25 06:42:38;;;;;;;;;;;;;;;23.40;69.75;99781.59;4473122;32;33546;-78
2023/06/25 06:45:08;;;;;;;;;;;;;;;23.49;69.91;99775.69;4475651;31;36322;-78
2023/06/25 06:47:36;;;;;;;;;;;;;;;23.44;70.75;99775.16;4477937;32;34302;-78
2023/06/25 06:50:07;;;;;;;;;;;;;;;23.52;70.76;99772.84;4473646;32;34155;-78
2023/06/25 06:52:36;;;;;;;;;;;;;;;23.53;70.25;99768.38;4472516;32;33322;-77
2023/06/25 06:55:05;;;;;;;;;;;;;;;23.52;69.26;99769.34;4473296;32;34749;-78
2023/06/25 06:57:36;;;;;;;;;;;;;;;23.51;68.32;99771.16;4475272;32;34868;-78
2023/06/25 07:00:05;;;;;;;;;;;;;;;23.55;69.77;99764.69;4475585;32;34151;-78
2023/06/25 07:02:34;;;;;;;;;;;;;;;23.59;70.37;99768.00;4473940;32;33515;-78
2023/06/25 07:05:03;;;;;;;;;;;;;;;23.83;68.82;99768.19;4472139;32;34144;-80
2023/06/25 07:07:33;;;;;;;;;;;;;;;23.90;68.48;99768.66;4473452;32;32528;-79
2023/06/25 07:10:01;;;;;;;;;;;;;;;24.10;67.97;99765.47;4471081;32;34103;-78
2023/06/25 07:12:30;;;;;;;;;;;;;;;24.08;67.87;99762.09;4466486;32;33356;-78
2023/06/25 07:14:59;;;;;;;;;;;;;;;24.35;67.93;99774.41;4468035;32;35116;-78
2023/06/25 07:17:28;;;;;;;;;;;;;;;24.41;68.41;99768.69;4460488;32;33633;-79
2023/06/25 07:19:56;;;;;;;;;;;;;;;24.04;68.10;99771.19;4475714;32;34251;-79
2023/06/25 07:22:25;;;;;;;;;;;;;;;24.27;67.33;99777.56;4464082;32;33903;-79
2023/06/25 07:24:55;;;;;;;;;;;;;;;24.62;66.20;99774.31;4471819;32;34833;-78
2023/06/25 07:27:24;;;;;;;;;;;;;;;24.62;66.80;99774.31;4467417;32;34143;-78
2023/06/25 07:29:53;;;;;;;;;;;;;;;24.71;67.94;99771.00;4469582;32;35020;-79
2023/06/25 07:32:22;;;;;;;;;;;;;;;24.73;66.44;99765.59;4460307;31;33394;-78
2023/06/25 07:34:51;;;;;;;;;;;;;;;24.75;65.34;99763.69;4468277;32;34334;-78
2023/06/25 07:37:20;;;;;;;;;;;;;;;24.74;66.29;99765.47;4464958;32;34237;-79
2023/06/25 07:39:48;;;;;;;;;;;;;;;24.68;66.20;99764.13;4465346;32;35164;-79
2023/06/25 07:42:18;;;;;;;;;;;;;;;24.78;66.75;99768.78;4475284;32;33331;-78
2023/06/25 07:44:47;;;;;;;;;;;;;;;24.46;65.00;99763.94;4465585;32;33024;-79
2023/06/25 07:47:24;;;;;;;;;;;;;;;24.61;63.53;99767.31;4476158;32;33286;-79
2023/06/25 07:49:53;;;;;;;;;;;;;;;24.75;64.53;99771.66;4463757;32;34069;-78
2023/06/25 07:52:22;;;;;;;;;;;;;;;25.00;63.28;99771.56;4471940;32;34092;-79
2023/06/25 07:54:50;;;;;;;;;;;;;;;24.81;64.35;99765.91;4469851;32;35009;-79
2023/06/25 07:57:20;;;;;;;;;;;;;;;24.23;62.58;99768.12;4472950;32;33947;-79
2023/06/25 07:59:49;;;;;;;;;;;;;;;24.73;62.26;99760.28;4467144;32;34441;-79
2023/06/25 08:02:21;;;;;;;;;;;;;;;24.92;64.12;99761.53;4463441;32;33703;-78
2023/06/25 08:04:50;;;;;;;;;;;;;;;25.17;62.07;99766.88;4472899;32;34658;-79
2023/06/25 08:07:19;;;;;;;;;;;;;;;25.40;61.58;99774.03;4460436;32;34254;-78
2023/06/25 08:09:48;;;;;;;;;;;;;;;25.54;59.04;99759.75;4461429;32;33830;-78
2023/06/25 08:12:21;;;;;;;;;;;;;;;25.53;59.62;99763.34;4474478;32;32653;-79
2023/06/25 08:14:49;;;;;;;;;;;;;;;25.64;61.03;99760.75;4478440;32;34422;-78
2023/06/25 08:17:19;;;;;;;;;;;;;;;25.83;62.24;99762.88;4473607;32;35025;-79
2023/06/25 08:19:48;;;;;;;;;;;;;;;25.87;61.31;99769.66;4473539;32;34134;-79
2023/06/25 08:22:17;;;;;;;;;;;;;;;25.74;57.17;99761.75;4473540;32;34110;-78
2023/06/25 08:24:46;;;;;;;;;;;;;;;25.61;58.97;99760.94;4466089;32;33449;-79
2023/06/25 08:27:14;;;;;;;;;;;;;;;25.64;59.03;99760.75;4481704;32;34334;-78
2023/06/25 08:29:45;;;;;;;;;;;;;;;25.90;57.70;99758.81;4475432;32;34490;-79
2023/06/25 08:32:15;;;;;;;;;;;;;;;26.08;58.82;99761.88;4469897;32;33890;-80
2023/06/25 08:34:45;;;;;;;;;;;;;;;26.23;58.39;99756.34;4464398;32;33619;-79
2023/06/25 08:37:13;;;;;;;;;;;;;;;26.44;57.22;99762.66;4475650;32;34357;-78
2023/06/25 08:39:45;;;;;;;;;;;;;;;26.47;55.95;99753.59;4475052;32;35176;-79
2023/06/25 08:42:15;;;;;;;;;;;;;;;26.53;56.22;99750.44;4471319;32;34895;-80
2023/06/25 08:44:47;;;;;;;;;;;;;;;26.55;53.62;99752.03;4469029;32;34577;-80
2023/06/25 08:47:16;;;;;;;;;;;;;;;26.23;52.19;99751.03;4470447;32;34926;-79
2023/06/25 08:49:46;;;;;;;;;;;;;;;26.35;52.11;99753.56;4477028;32;33438;-80
2023/06/25 08:52:14;;;;;;;;;;;;;;;26.47;51.35;99753.59;4469688;32;34154;-78
2023/06/25 08:54:44;;;;;;;;;;;;;;;26.27;51.76;99744.50;4466597;32;34077;-80
2023/06/25 08:57:12;;;;;;;;;;;;;;;26.54;53.53;99750.34;4466100;32;33786;-78
2023/06/25 08:59:41;;;;;;;;;;;;;;;26.44;52.10;99748.50;4474023;32;34378;-78
2023/06/25 09:02:11;;;;;;;;;;;;;;;26.70;50.17;99746.47;4468218;32;33023;-78
2023/06/25 09:04:46;;;;;;;;;;;;;;;26.53;49.16;99748.66;4470335;32;34009;-80
2023/06/25 09:07:15;;;;;;;;;;;;;;;26.64;54.21;99752.28;4470710;32;34286;-78
2023/06/25 09:09:44;;;;;;;;;;;;;;;26.52;51.04;99743.44;4473519;32;33537;-79
2023/06/25 09:12:13;;;;;;;;;;;;;;;26.69;47.71;99742.13;4473047;31;33471;-78
2023/06/25 09:14:42;;;;;;;;;;;;;;;26.59;48.47;99737.53;4463502;32;34132;-78
2023/06/25 09:17:12;;;;;;;;;;;;;;;26.60;52.26;99735.69;4476151;32;34295;-78
2023/06/25 09:19:43;;;;;;;;;;;;;;;26.76;50.75;99732.69;4464417;32;31878;-79
2023/06/25 09:22:12;;;;;;;;;;;;;;;26.89;52.60;99733.38;4483485;32;33917;-78
2023/06/25 09:24:42;;;;;;;;;;;;;;;26.99;51.32;99734.34;4463150;32;34391;-78
2023/06/25 09:27:11;;;;;;;;;;;;;;;27.04;47.24;99733.97;4464318;32;33878;-78
2023/06/25 09:29:40;;;;;;;;;;;;;;;26.95;49.56;99729.41;4471930;32;34993;-78
2023/06/25 09:32:09;;;;;;;;;;;;;;;26.99;50.46;99728.16;4475345;32;33310;-79
2023/06/25 09:34:41;;;;;;;;;;;;;;;26.98;59.34;99729.97;4473758;32;34561;-81
2023/06/25 09:37:10;;;;;;;;;;;;;;;26.70;50.62;99726.03;4472748;32;34045;-79
2023/06/25 09:39:40;;;;;;;;;;;;;;;26.90;49.54;99723.59;4469679;32;35214;-79
2023/06/25 09:42:08;;;;;;;;;;;;;;;27.03;49.21;99724.28;4474911;32;33539;-79
2023/06/25 09:44:37;;;;;;;;;;;;;;;27.45;49.39;99719.09;4479466;32;34634;-80
2023/06/25 09:47:07;;;;;;;;;;;;;;;27.41;50.14;99713.19;4473255;32;33405;-79
2023/06/25 09:49:35;;;;;;;;;;;;;;;26.93;51.55;99721.50;4473577;32;34316;-80
2023/06/25 09:52:09;;;;;;;;;;;;;;;27.22;50.92;99715.66;4473455;32;34155;-78
2023/06/25 09:54:39;;;;;;;;;;;;;;;27.26;49.87;99713.63;4476033;32;34790;-79
2023/06/25 09:57:10;;;;;;;;;;;;;;;27.34;47.98;99709.31;4466478;32;33964;-80
2023/06/25 09:59:39;;;;;;;;;;;;;;;27.71;49.30;99708.91;4464850;32;34722;-79
2023/06/25 10:02:08;;;;;;;;;;;;;;;27.87;46.28;99706.66;4468187;32;33001;-79
2023/06/25 10:04:37;;;;;;;;;;;;;;;27.86;43.73;99698.81;4471490;32;33679;-79
2023/06/25 10:07:10;;;;;;;;;;;;;;;27.67;42.82;99700.34;4476929;32;33966;-79
2023/06/25 10:09:39;;;;;;;;;;;;;;;27.50;44.16;99697.38;4468105;32;34125;-81
2023/06/25 10:12:08;;;;;;;;;;;;;;;27.77;45.08;99705.72;4472477;32;33722;-80
2023/06/25 10:14:37;;;;;;;;;;;;;;;27.76;46.46;99697.84;4470707;32;33664;-79
2023/06/25 10:17:06;;;;;;;;;;;;;;;27.78;47.25;99698.56;4478625;32;34223;-80
2023/06/25 10:19:34;;;;;;;;;;;;;;;28.00;44.65;99690.44;4459097;32;35007;-81
2023/06/25 10:22:04;;;;;;;;;;;;;;;28.14;45.69;99694.59;4464130;32;33397;-80
2023/06/25 10:24:41;;;;;;;;;;;;;;;27.99;48.42;99687.94;4464132;32;33784;-78
2023/06/25 10:27:19;;;;;;;;;;;;;;;28.58;44.18;99694.41;4464746;32;34337;-81
2023/06/25 10:29:48;;;;;;;;;;;;;;;28.78;41.81;99689.94;4473576;32;33601;-80
2023/06/25 10:32:20;;;;;;;;;;;;;;;28.97;46.08;99691.81;4472203;32;33172;-82
2023/06/25 10:34:53;;;;;;;;;;;;;;;28.61;42.16;99688.78;4464373;32;33627;-78
2023/06/25 10:37:23;;;;;;;;;;;;;;;28.37;44.79;99697.97;4467675;31;34043;-81
2023/06/25 10:40:00;;;;;;;;;;;;;;;28.50;43.42;99695.91;4460642;32;33863;-81
2023/06/25 10:42:31;;;;;;;;;;;;;;;28.58;41.82;99686.38;4469683;32;33822;-78
2023/06/25 10:45:00;;;;;;;;;;;;;;;28.99;41.15;99688.03;4463145;32;34146;-79
2023/06/25 10:47:32;;;;;;;;;;;;;;;29.04;41.05;99685.78;4468174;32;35572;-79
2023/06/25 10:50:01;;;;;;;;;;;;;;;29.10;42.82;99695.13;4467309;32;34215;-79
2023/06/25 10:52:30;;;;;;;;;;;;;;;29.47;40.51;99689.91;4470326;32;33115;-80
2023/06/25 10:55:02;;;;;;;;;;;;;;;29.53;44.23;99681.34;4470935;32;34114;-81
2023/06/25 10:57:31;;;;;;;;;;;;;;;29.71;44.59;99681.47;4464431;32;33427;-78
2023/06/25 11:00:00;;;;;;;;;;;;;;;29.90;42.46;99677.06;4467839;32;34427;-78
2023/06/25 11:02:29;;;;;;;;;;;;;;;29.90;42.56;99674.41;4474396;32;33408;-78
2023/06/25 11:04:59;;;;;;;;;;;;;;;30.01;41.28;99678.72;4469075;32;33979;-79
2023/06/25 11:07:27;;;;;;;;;;;;;;;30.08;41.32;99678.00;4466461;32;34436;-81
2023/06/25 11:09:56;;;;;;;;;;;;;;;30.12;40.02;99674.03;4470288;32;34673;-82
2023/06/25 11:12:27;;;;;;;;;;;;;;;30.15;40.19;99678.25;4464676;32;33962;-79
2023/06/25 11:14:56;;;;;;;;;;;;;;;30.18;38.35;99670.78;4465485;32;33741;-77
2023/06/25 11:17:27;;;;;;;;;;;;;;;30.17;38.68;99668.25;4461371;31;31619;-78
2023/06/25 11:19:57;;;;;;;;;;;;;;;29.28;37.21;99665.87;4458486;32;34676;-79
2023/06/25 11:22:26;;;;;;;;;;;;;;;28.96;37.48;99653.59;4465031;32;33298;-79
2023/06/25 11:24:55;;;;;;;;;;;;;;;28.46;40.23;99659.81;4471500;32;33416;-77
2023/06/25 11:27:28;;;;;;;;;;;;;;;28.90;38.37;99652.31;4469050;32;34263;-79
2023/06/25 11:29:58;;;;;;;;;;;;;;;29.22;38.55;99653.91;4466608;32;34873;-79
2023/06/25 11:32:27;;;;;;;;;;;;;;;29.42;37.92;99660.09;4462250;32;33512;-80
2023/06/25 11:35:00;;;;;;;;;;;;;;;29.62;37.77;99644.03;4464665;32;33584;-79
2023/06/25 11:37:29;;;;;;;;;;;;;;;29.78;37.56;99645.16;4470544;32;33777;-79
2023/06/25 11:40:01;;;;;;;;;;;;;;;30.11;35.31;99642.94;4463505;32;35864;-80
2023/06/25 11:42:32;;;;;;;;;;;;;;;30.31;35.67;99646.41;4460523;32;33271;-78
2023/06/25 11:45:02;;;;;;;;;;;;;;;30.39;36.58;99645.66;4470091;32;33186;-80
2023/06/25 11:47:32;;;;;;;;;;;;;;;29.85;35.11;99645.41;4473205;32;34962;-79
2023/06/25 11:50:01;;;;;;;;;;;;;;;30.11;35.05;99639.44;4471862;32;34027;-79
2023/06/25 11:52:30;;;;;;;;;;;;;;;29.86;35.66;99630.22;4467976;32;34095;-79
2023/06/25 11:54:59;;;;;;;;;;;;;;;29.69;34.69;99626.47;4461123;32;34686;-78
2023/06/25 11:57:28;;;;;;;;;;;;;;;29.56;35.11;99630.25;4468377;32;34613;-78
2023/06/25 11:59:57;;;;;;;;;;;;;;;29.84;35.53;99627.69;4468059;32;34958;-79
2023/06/25 12:02:26;;;;;;;;;;;;;;;29.96;35.59;99629.19;4463063;32;33890;-79
2023/06/25 12:05:15;;;;;;;;;;;;;;;30.16;37.40;99627.28;4466183;32;32383;-80
2023/06/25 12:07:44;;;;;;;;;;;;;;;30.34;34.89;99627.34;4466595;32;34184;-79
2023/06/25 12:10:12;;;;;;;;;;;;;;;30.62;38.31;99633.56;4468588;31;34809;-78
2023/06/25 12:12:43;;;;;;;;;;;;;;;30.39;35.41;99629.59;4474475;32;33674;-80
2023/06/25 12:15:14;;;;;;;;;;;;;;;30.15;36.33;99627.41;4466838;32;34219;-78
2023/06/25 12:17:43;;;;;;;;;;;;;;;29.64;37.07;99618.00;4463479;32;33415;-80
2023/06/25 12:20:13;;;;;;;;;;;;;;;29.61;37.26;99619.13;4471513;32;34219;-78
2023/06/25 12:22:43;;;;;;;;;;;;;;;29.33;37.95;99623.53;4462952;32;33014;-78
2023/06/25 12:25:11;;;;;;;;;;;;;;;28.90;38.16;99620.28;4470029;32;33759;-79
2023/06/25 12:27:40;;;;;;;;;;;;;;;29.08;38.89;99620.44;4469986;32;34905;-79
2023/06/25 12:30:09;;;;;;;;;;;;;;;28.88;38.74;99614.22;4465836;32;34778;-78
2023/06/25 12:32:39;;;;;;;;;;;;;;;29.04;38.47;99616.34;4464031;32;33204;-79
2023/06/25 12:35:09;;;;;;;;;;;;;;;29.16;39.24;99613.56;4471298;32;33754;-80
2023/06/25 12:37:38;;;;;;;;;;;;;;;28.83;38.75;99613.81;4467743;32;34825;-78
2023/06/25 12:40:08;;;;;;;;;;;;;;;28.62;39.55;99615.75;4464767;32;35243;-79
2023/06/25 12:42:37;;;;;;;;;;;;;;;28.51;39.64;99619.34;4464383;32;33425;-78
2023/06/25 12:45:07;;;;;;;;;;;;;;;28.36;38.52;99610.88;4481057;32;34599;-77
2023/06/25 12:47:36;;;;;;;;;;;;;;;28.62;38.30;99613.06;4477860;32;33827;-80
2023/06/25 12:50:06;;;;;;;;;;;;;;;28.92;38.32;99607.66;4470120;32;34202;-77
2023/06/25 12:52:35;;;;;;;;;;;;;;;28.83;37.41;99599.63;4474197;32;33357;-78
2023/06/25 12:55:05;;;;;;;;;;;;;;;29.26;38.38;99606.38;4470622;32;34430;-79
2023/06/25 12:57:34;;;;;;;;;;;;;;;29.39;37.71;99608.78;4467130;32;34022;-79
2023/06/25 13:00:04;;;;;;;;;;;;;;;29.42;36.94;99605.81;4465359;32;35036;-78